Kezdőlap
METAR-TAF:

METAR-TAF

Repülőterek :

Harbin, Kína

földrajzi szélesség: 45-45N, földrajzi hosszúság: 126-46E, magasság: 143 m

Jelenlegi meteorológiai megfigyelések

A jelentés 1 órával és 8 perccel ezelõtt készült, 18:00 UTC
Déli szél 6 kt
Hőmérséklet 10°C
Páratartalom 93%
Légköri nyomás 1009 hPa
Látótávolság: 7000 m

METAR: ZYHB 121800Z 19003MPS 7000 NSC 10/09 Q1009 NOSIG

Idő: 03:08 (19:08 UTC)

Előrejelzés

A jelentés 4 órával és 6 perccel ezelõtt készült, 15:02 UTC
Az előrejelzés 12-én 18 óra UTC és 13-én 18 óra UTC között érvényes
Dél-délnyugati szél 8 kt
Látótávolság: 6000 m
Szórványos felhőzet 3300 lábon

TAF: ZYHB 121502Z 1218/1318 20004MPS 6000 SCT033 TX23/1306Z TN08/1221Z

Meteorológiai megfigyelések és előrejelzések több, mint 4000 repülőtéren (METAR és TAF jelentéseket).

A térképen piros és sárga pontok jelzik az elérhető meteorológiai állomásokat.

Mozgassa az egeret a pont fölött, hogy megjelenjen az állomás neve.

Azután kattintson az időjárási megfigyelések és előrejelzések megtekintéséhez.

A térkép megváltoztatása: kattintson a fekete keresztel jelölt zöld gombra ráközelítéshez, a vonallal jelölt zöld gombra távolításhoz, vagy a zöld nyilakra a szomszédos térképek eléréséhez.


METAR-TAF: